sensor_id;sensor_type;location;lat;lon;timestamp;pressure;altitude;pressure_sealevel;temperature;humidity
5755;BME280;2902;42.130;24.732;2023-01-28T00:00:48;98755.16;;;4.33;82.07
5755;BME280;2902;42.130;24.732;2023-01-28T00:03:15;98753.38;;;4.34;82.29
5755;BME280;2902;42.130;24.732;2023-01-28T00:05:42;98754.81;;;4.36;82.34
5755;BME280;2902;42.130;24.732;2023-01-28T00:08:09;98751.19;;;4.37;82.43
5755;BME280;2902;42.130;24.732;2023-01-28T00:10:37;98756.75;;;4.42;82.24
5755;BME280;2902;42.130;24.732;2023-01-28T00:13:06;98765.16;;;4.38;82.22
5755;BME280;2902;42.130;24.732;2023-01-28T00:15:33;98763.72;;;4.35;82.41
5755;BME280;2902;42.130;24.732;2023-01-28T00:17:59;98753.88;;;4.29;82.31
5755;BME280;2902;42.130;24.732;2023-01-28T00:20:26;98760.44;;;4.33;82.29
5755;BME280;2902;42.130;24.732;2023-01-28T00:22:53;98755.81;;;4.35;82.65
5755;BME280;2902;42.130;24.732;2023-01-28T00:25:20;98763.72;;;4.35;82.31
5755;BME280;2902;42.130;24.732;2023-01-28T00:27:48;98768.97;;;4.35;82.34
5755;BME280;2902;42.130;24.732;2023-01-28T00:30:16;98768.38;;;4.25;82.77
5755;BME280;2902;42.130;24.732;2023-01-28T00:32:43;98773.31;;;4.20;82.56
5755;BME280;2902;42.130;24.732;2023-01-28T00:35:10;98769.41;;;4.16;82.58
5755;BME280;2902;42.130;24.732;2023-01-28T00:37:37;98776.28;;;4.17;82.81
5755;BME280;2902;42.130;24.732;2023-01-28T00:40:04;98783.50;;;4.23;83.03
5755;BME280;2902;42.130;24.732;2023-01-28T00:42:34;98788.47;;;4.18;82.69
5755;BME280;2902;42.130;24.732;2023-01-28T00:45:01;98793.84;;;4.25;83.26
5755;BME280;2902;42.130;24.732;2023-01-28T00:47:29;98803.19;;;4.27;83.28
5755;BME280;2902;42.130;24.732;2023-01-28T00:49:56;98806.13;;;4.32;82.83
5755;BME280;2902;42.130;24.732;2023-01-28T00:52:23;98806.44;;;4.29;82.48
5755;BME280;2902;42.130;24.732;2023-01-28T00:54:50;98814.63;;;4.34;83.10
5755;BME280;2902;42.130;24.732;2023-01-28T00:57:16;98810.06;;;4.28;82.28
5755;BME280;2902;42.130;24.732;2023-01-28T00:59:43;98807.41;;;4.36;82.86
5755;BME280;2902;42.130;24.732;2023-01-28T01:02:10;98812.06;;;4.26;82.68
5755;BME280;2902;42.130;24.732;2023-01-28T01:04:41;98809.75;;;4.31;82.65
5755;BME280;2902;42.130;24.732;2023-01-28T01:07:20;98819.28;;;4.24;82.44
5755;BME280;2902;42.130;24.732;2023-01-28T01:09:47;98809.13;;;4.21;83.18
5755;BME280;2902;42.130;24.732;2023-01-28T01:12:14;98814.22;;;4.23;83.17
5755;BME280;2902;42.130;24.732;2023-01-28T01:14:42;98811.13;;;4.19;82.75
5755;BME280;2902;42.130;24.732;2023-01-28T01:17:08;98812.06;;;4.26;83.19
5755;BME280;2902;42.130;24.732;2023-01-28T01:19:36;98812.41;;;4.23;83.26
5755;BME280;2902;42.130;24.732;2023-01-28T01:22:04;98811.56;;;4.23;83.59
5755;BME280;2902;42.130;24.732;2023-01-28T01:24:31;98808.31;;;4.21;83.10
5755;BME280;2902;42.130;24.732;2023-01-28T01:26:58;98812.75;;;4.20;83.18
5755;BME280;2902;42.130;24.732;2023-01-28T01:29:26;98812.13;;;4.18;82.95
5755;BME280;2902;42.130;24.732;2023-01-28T01:31:53;98816.66;;;4.24;82.76
5755;BME280;2902;42.130;24.732;2023-01-28T01:34:20;98818.47;;;4.24;83.28
5755;BME280;2902;42.130;24.732;2023-01-28T01:36:46;98820.94;;;4.25;83.45
5755;BME280;2902;42.130;24.732;2023-01-28T01:39:15;98818.44;;;4.32;82.92
5755;BME280;2902;42.130;24.732;2023-01-28T01:41:41;98821.47;;;4.21;82.56
5755;BME280;2902;42.130;24.732;2023-01-28T01:47:08;98833.13;;;4.18;83.17
5755;BME280;2902;42.130;24.732;2023-01-28T01:49:35;98830.19;;;4.13;82.98
5755;BME280;2902;42.130;24.732;2023-01-28T01:52:06;98819.38;;;4.08;82.73
5755;BME280;2902;42.130;24.732;2023-01-28T01:54:36;98829.19;;;4.22;82.22
5755;BME280;2902;42.130;24.732;2023-01-28T01:57:06;98840.31;;;4.24;82.12
5755;BME280;2902;42.130;24.732;2023-01-28T01:59:36;98835.91;;;4.25;82.85
5755;BME280;2902;42.130;24.732;2023-01-28T02:02:04;98843.91;;;4.31;81.73
5755;BME280;2902;42.130;24.732;2023-01-28T02:04:37;98845.84;;;4.37;81.54
5755;BME280;2902;42.130;24.732;2023-01-28T02:07:07;98845.88;;;4.29;81.15
5755;BME280;2902;42.130;24.732;2023-01-28T02:09:35;98849.47;;;4.36;81.25
5755;BME280;2902;42.130;24.732;2023-01-28T02:12:06;98850.78;;;4.32;80.61
5755;BME280;2902;42.130;24.732;2023-01-28T02:14:35;98864.91;;;4.39;80.71
5755;BME280;2902;42.130;24.732;2023-01-28T02:17:04;98850.75;;;4.40;81.04
5755;BME280;2902;42.130;24.732;2023-01-28T02:19:35;98858.31;;;4.43;81.34
5755;BME280;2902;42.130;24.732;2023-01-28T02:22:13;98862.91;;;4.41;81.50
5755;BME280;2902;42.130;24.732;2023-01-28T02:27:57;98868.78;;;4.51;80.75
5755;BME280;2902;42.130;24.732;2023-01-28T02:30:32;98872.75;;;4.47;80.74
5755;BME280;2902;42.130;24.732;2023-01-28T02:33:04;98868.81;;;4.43;80.49
5755;BME280;2902;42.130;24.732;2023-01-28T02:35:40;98878.84;;;4.40;80.80
5755;BME280;2902;42.130;24.732;2023-01-28T02:38:10;98874.38;;;4.48;80.48
5755;BME280;2902;42.130;24.732;2023-01-28T02:40:42;98868.16;;;4.41;80.55
5755;BME280;2902;42.130;24.732;2023-01-28T02:43:31;98875.38;;;4.47;79.74
5755;BME280;2902;42.130;24.732;2023-01-28T02:45:59;98882.44;;;4.47;79.57
5755;BME280;2902;42.130;24.732;2023-01-28T02:48:45;98878.16;;;4.46;79.56
5755;BME280;2902;42.130;24.732;2023-01-28T02:51:17;98888.72;;;4.38;79.97
5755;BME280;2902;42.130;24.732;2023-01-28T02:53:52;98888.53;;;4.47;79.59
5755;BME280;2902;42.130;24.732;2023-01-28T02:56:26;98883.94;;;4.41;79.40
5755;BME280;2902;42.130;24.732;2023-01-28T02:59:00;98882.31;;;4.40;79.77
5755;BME280;2902;42.130;24.732;2023-01-28T03:01:52;98889.19;;;4.41;79.56
5755;BME280;2902;42.130;24.732;2023-01-28T03:04:27;98893.81;;;4.39;79.60
5755;BME280;2902;42.130;24.732;2023-01-28T03:06:58;98893.44;;;4.42;79.52
5755;BME280;2902;42.130;24.732;2023-01-28T03:09:31;98894.78;;;4.38;78.98
5755;BME280;2902;42.130;24.732;2023-01-28T03:12:02;98896.19;;;4.26;78.93
5755;BME280;2902;42.130;24.732;2023-01-28T03:14:51;98897.44;;;4.30;78.91
5755;BME280;2902;42.130;24.732;2023-01-28T03:17:42;98901.03;;;4.37;78.67
5755;BME280;2902;42.130;24.732;2023-01-28T03:20:32;98906.97;;;4.39;78.56
5755;BME280;2902;42.130;24.732;2023-01-28T03:23:22;98903.97;;;4.42;77.98
5755;BME280;2902;42.130;24.732;2023-01-28T03:26:12;98907.63;;;4.33;78.56
5755;BME280;2902;42.130;24.732;2023-01-28T03:29:04;98896.13;;;4.34;78.60
5755;BME280;2902;42.130;24.732;2023-01-28T03:31:53;98901.53;;;4.41;78.73
5755;BME280;2902;42.130;24.732;2023-01-28T03:34:39;98896.31;;;4.33;78.36
5755;BME280;2902;42.130;24.732;2023-01-28T03:37:23;98910.59;;;4.30;78.33
5755;BME280;2902;42.130;24.732;2023-01-28T03:39:51;98896.47;;;4.31;78.43
5755;BME280;2902;42.130;24.732;2023-01-28T03:42:18;98905.66;;;4.35;78.65
5755;BME280;2902;42.130;24.732;2023-01-28T03:44:45;98910.91;;;4.35;78.13
5755;BME280;2902;42.130;24.732;2023-01-28T03:47:15;98911.75;;;4.28;78.06
5755;BME280;2902;42.130;24.732;2023-01-28T03:49:44;98909.63;;;4.31;78.20
5755;BME280;2902;42.130;24.732;2023-01-28T03:52:14;98919.47;;;4.29;78.38
5755;BME280;2902;42.130;24.732;2023-01-28T03:54:41;98922.41;;;4.34;78.20
5755;BME280;2902;42.130;24.732;2023-01-28T03:57:09;98920.13;;;4.31;78.14
5755;BME280;2902;42.130;24.732;2023-01-28T03:59:35;98917.50;;;4.31;77.87
5755;BME280;2902;42.130;24.732;2023-01-28T04:02:02;98925.41;;;4.31;78.31
5755;BME280;2902;42.130;24.732;2023-01-28T04:04:31;98913.44;;;4.21;78.46
5755;BME280;2902;42.130;24.732;2023-01-28T04:06:58;98922.94;;;4.30;79.06
5755;BME280;2902;42.130;24.732;2023-01-28T04:09:25;98923.13;;;4.20;78.89
5755;BME280;2902;42.130;24.732;2023-01-28T04:11:51;98918.56;;;4.14;78.80
5755;BME280;2902;42.130;24.732;2023-01-28T04:14:18;98923.81;;;4.14;79.21
5755;BME280;2902;42.130;24.732;2023-01-28T04:16:45;98915.94;;;4.14;78.89
5755;BME280;2902;42.130;24.732;2023-01-28T04:19:12;98920.66;;;4.19;78.76
5755;BME280;2902;42.130;24.732;2023-01-28T04:21:40;98921.00;;;4.16;78.72
5755;BME280;2902;42.130;24.732;2023-01-28T04:24:07;98921.81;;;4.16;79.09
5755;BME280;2902;42.130;24.732;2023-01-28T04:26:34;98926.47;;;4.06;79.04
5755;BME280;2902;42.130;24.732;2023-01-28T04:29:01;98930.91;;;4.06;79.05
5755;BME280;2902;42.130;24.732;2023-01-28T04:31:28;98924.00;;;4.05;79.18
5755;BME280;2902;42.130;24.732;2023-01-28T04:33:55;98926.94;;;4.10;78.63
5755;BME280;2902;42.130;24.732;2023-01-28T04:36:22;98931.88;;;4.13;78.61
5755;BME280;2902;42.130;24.732;2023-01-28T04:38:50;98929.41;;;4.11;79.02
5755;BME280;2902;42.130;24.732;2023-01-28T04:41:17;98929.59;;;4.02;78.97
5755;BME280;2902;42.130;24.732;2023-01-28T04:43:44;98937.63;;;4.00;79.24
5755;BME280;2902;42.130;24.732;2023-01-28T04:46:11;98937.97;;;3.97;79.72
5755;BME280;2902;42.130;24.732;2023-01-28T04:48:37;98939.78;;;3.97;79.26
5755;BME280;2902;42.130;24.732;2023-01-28T04:51:05;98939.63;;;3.98;79.59
5755;BME280;2902;42.130;24.732;2023-01-28T04:53:32;98947.66;;;4.05;78.74
5755;BME280;2902;42.130;24.732;2023-01-28T04:56:00;98949.47;;;3.88;79.42
5755;BME280;2902;42.130;24.732;2023-01-28T04:58:27;98949.31;;;3.90;79.61
5755;BME280;2902;42.130;24.732;2023-01-28T05:00:54;98956.22;;;3.91;79.29
5755;BME280;2902;42.130;24.732;2023-01-28T05:03:21;98961.97;;;3.94;79.67
5755;BME280;2902;42.130;24.732;2023-01-28T05:05:48;98963.28;;;3.90;79.69
5755;BME280;2902;42.130;24.732;2023-01-28T05:08:15;98955.41;;;3.82;80.08
5755;BME280;2902;42.130;24.732;2023-01-28T05:10:42;98969.00;;;3.94;79.29
5755;BME280;2902;42.130;24.732;2023-01-28T05:13:21;98971.81;;;3.92;79.51
5755;BME280;2902;42.130;24.732;2023-01-28T05:15:51;98969.84;;;3.94;80.07
5755;BME280;2902;42.130;24.732;2023-01-28T05:18:18;98979.66;;;4.00;79.27
5755;BME280;2902;42.130;24.732;2023-01-28T05:20:45;98978.69;;;4.01;79.53
5755;BME280;2902;42.130;24.732;2023-01-28T05:23:12;98976.56;;;4.05;79.64
5755;BME280;2902;42.130;24.732;2023-01-28T05:25:39;98981.13;;;4.11;79.14
5755;BME280;2902;42.130;24.732;2023-01-28T05:28:06;98982.09;;;4.18;79.25
5755;BME280;2902;42.130;24.732;2023-01-28T05:30:34;98976.38;;;4.14;78.93
5755;BME280;2902;42.130;24.732;2023-01-28T05:33:01;98987.50;;;4.24;78.82
5755;BME280;2902;42.130;24.732;2023-01-28T05:35:27;98994.75;;;4.22;78.61
5755;BME280;2902;42.130;24.732;2023-01-28T05:37:54;98991.13;;;4.23;78.87
5755;BME280;2902;42.130;24.732;2023-01-28T05:40:21;99000.31;;;4.27;78.47
5755;BME280;2902;42.130;24.732;2023-01-28T05:42:48;98999.66;;;4.25;78.43
5755;BME280;2902;42.130;24.732;2023-01-28T05:45:15;99000.34;;;4.19;79.09
5755;BME280;2902;42.130;24.732;2023-01-28T05:47:43;99009.22;;;4.18;79.11
5755;BME280;2902;42.130;24.732;2023-01-28T05:50:12;98998.38;;;4.13;79.32
5755;BME280;2902;42.130;24.732;2023-01-28T05:52:39;99009.03;;;4.20;79.08
5755;BME280;2902;42.130;24.732;2023-01-28T05:55:06;99013.63;;;4.26;78.78
5755;BME280;2902;42.130;24.732;2023-01-28T05:57:33;99013.59;;;4.34;78.47
5755;BME280;2902;42.130;24.732;2023-01-28T06:00:00;99013.47;;;4.27;78.45
5755;BME280;2902;42.130;24.732;2023-01-28T06:02:27;99022.63;;;4.39;78.12
5755;BME280;2902;42.130;24.732;2023-01-28T06:04:55;99031.16;;;4.41;78.06
5755;BME280;2902;42.130;24.732;2023-01-28T06:07:21;99037.75;;;4.37;78.30
5755;BME280;2902;42.130;24.732;2023-01-28T06:09:48;99042.66;;;4.40;78.68
5755;BME280;2902;42.130;24.732;2023-01-28T06:12:15;99044.63;;;4.46;78.26
5755;BME280;2902;42.130;24.732;2023-01-28T06:14:42;99052.34;;;4.40;78.58
5755;BME280;2902;42.130;24.732;2023-01-28T06:17:08;99056.66;;;4.41;78.64
5755;BME280;2902;42.130;24.732;2023-01-28T06:19:35;99053.50;;;4.45;78.39
5755;BME280;2902;42.130;24.732;2023-01-28T06:22:03;99059.75;;;4.52;78.17
5755;BME280;2902;42.130;24.732;2023-01-28T06:24:30;99060.06;;;4.49;78.16
5755;BME280;2902;42.130;24.732;2023-01-28T06:26:57;99058.75;;;4.45;78.60
5755;BME280;2902;42.130;24.732;2023-01-28T06:29:23;99059.44;;;4.47;78.77
5755;BME280;2902;42.130;24.732;2023-01-28T06:31:50;99072.25;;;4.34;78.70
5755;BME280;2902;42.130;24.732;2023-01-28T06:34:17;99075.38;;;4.46;78.80
5755;BME280;2902;42.130;24.732;2023-01-28T06:36:44;99069.41;;;4.52;78.99
5755;BME280;2902;42.130;24.732;2023-01-28T06:39:12;99071.41;;;4.58;79.20
5755;BME280;2902;42.130;24.732;2023-01-28T06:41:38;99069.06;;;4.63;79.06
5755;BME280;2902;42.130;24.732;2023-01-28T06:44:05;99075.81;;;4.57;79.26
5755;BME280;2902;42.130;24.732;2023-01-28T06:46:32;99089.63;;;4.67;78.38
5755;BME280;2902;42.130;24.732;2023-01-28T06:48:59;99100.59;;;4.79;78.18
5755;BME280;2902;42.130;24.732;2023-01-28T06:51:25;99099.44;;;4.81;78.39
5755;BME280;2902;42.130;24.732;2023-01-28T06:53:52;99095.00;;;4.82;78.60
5755;BME280;2902;42.130;24.732;2023-01-28T06:56:20;99096.09;;;4.95;78.41
5755;BME280;2902;42.130;24.732;2023-01-28T06:58:47;99105.78;;;5.03;78.50
5755;BME280;2902;42.130;24.732;2023-01-28T07:01:14;99100.66;;;5.09;78.03
5755;BME280;2902;42.130;24.732;2023-01-28T07:03:40;99109.81;;;5.21;77.79
5755;BME280;2902;42.130;24.732;2023-01-28T07:06:07;99082.53;;;5.14;77.74
5755;BME280;2902;42.130;24.732;2023-01-28T07:08:34;99112.97;;;5.47;77.73
5755;BME280;2902;42.130;24.732;2023-01-28T07:11:02;99119.53;;;5.51;76.87
5755;BME280;2902;42.130;24.732;2023-01-28T07:13:30;99125.91;;;5.57;76.38
5755;BME280;2902;42.130;24.732;2023-01-28T07:15:57;99122.41;;;5.64;75.92
5755;BME280;2902;42.130;24.732;2023-01-28T07:18:24;99131.66;;;5.60;76.26
5755;BME280;2902;42.130;24.732;2023-01-28T07:20:51;99128.06;;;5.84;76.22
5755;BME280;2902;42.130;24.732;2023-01-28T07:23:18;99138.00;;;5.74;74.42
5755;BME280;2902;42.130;24.732;2023-01-28T07:25:44;99133.00;;;5.56;74.54
5755;BME280;2902;42.130;24.732;2023-01-28T07:28:11;99133.16;;;5.55;74.57
5755;BME280;2902;42.130;24.732;2023-01-28T07:30:39;99142.91;;;5.54;75.08
5755;BME280;2902;42.130;24.732;2023-01-28T07:33:06;99145.50;;;5.62;74.88
5755;BME280;2902;42.130;24.732;2023-01-28T07:35:32;99143.72;;;5.77;75.47
5755;BME280;2902;42.130;24.732;2023-01-28T07:38:00;99149.59;;;5.65;74.95
5755;BME280;2902;42.130;24.732;2023-01-28T07:40:27;99157.63;;;5.71;74.38
5755;BME280;2902;42.130;24.732;2023-01-28T07:42:54;99153.97;;;5.81;74.75
5755;BME280;2902;42.130;24.732;2023-01-28T07:45:22;99156.84;;;5.94;73.62
5755;BME280;2902;42.130;24.732;2023-01-28T07:47:54;99163.00;;;5.86;73.93
5755;BME280;2902;42.130;24.732;2023-01-28T07:50:21;99169.09;;;5.87;73.41
5755;BME280;2902;42.130;24.732;2023-01-28T07:52:48;99163.78;;;5.95;72.99
5755;BME280;2902;42.130;24.732;2023-01-28T07:55:15;99165.81;;;5.85;73.51
5755;BME280;2902;42.130;24.732;2023-01-28T07:57:49;99164.94;;;6.15;73.30
5755;BME280;2902;42.130;24.732;2023-01-28T08:00:17;99158.19;;;6.35;72.85
5755;BME280;2902;42.130;24.732;2023-01-28T08:02:45;99172.34;;;6.56;71.54
5755;BME280;2902;42.130;24.732;2023-01-28T08:05:15;99175.88;;;6.86;71.00
5755;BME280;2902;42.130;24.732;2023-01-28T08:07:42;99176.81;;;7.36;70.55
5755;BME280;2902;42.130;24.732;2023-01-28T08:10:10;99191.44;;;7.68;67.65
5755;BME280;2902;42.130;24.732;2023-01-28T08:12:37;99198.69;;;7.80;68.43
5755;BME280;2902;42.130;24.732;2023-01-28T08:15:05;99203.00;;;8.17;66.53
5755;BME280;2902;42.130;24.732;2023-01-28T08:17:32;99207.81;;;8.49;66.36
5755;BME280;2902;42.130;24.732;2023-01-28T08:19:59;99204.66;;;8.60;64.98
5755;BME280;2902;42.130;24.732;2023-01-28T08:22:27;99207.66;;;8.57;64.87
5755;BME280;2902;42.130;24.732;2023-01-28T08:24:54;99218.81;;;8.73;63.68
5755;BME280;2902;42.130;24.732;2023-01-28T08:27:20;99218.75;;;8.88;61.91
5755;BME280;2902;42.130;24.732;2023-01-28T08:29:48;99226.25;;;9.12;60.86
5755;BME280;2902;42.130;24.732;2023-01-28T08:32:14;99230.31;;;9.08;60.24
5755;BME280;2902;42.130;24.732;2023-01-28T08:34:41;99231.72;;;9.38;60.08
5755;BME280;2902;42.130;24.732;2023-01-28T08:37:08;99240.94;;;9.76;58.45
5755;BME280;2902;42.130;24.732;2023-01-28T08:39:36;99240.13;;;9.82;58.24
5755;BME280;2902;42.130;24.732;2023-01-28T08:42:04;99240.19;;;9.95;57.81
5755;BME280;2902;42.130;24.732;2023-01-28T08:44:30;99238.53;;;9.87;57.76
5755;BME280;2902;42.130;24.732;2023-01-28T08:46:57;99241.50;;;10.12;57.61
5755;BME280;2902;42.130;24.732;2023-01-28T08:49:24;99250.13;;;10.20;55.94
5755;BME280;2902;42.130;24.732;2023-01-28T08:51:50;99237.97;;;9.98;57.13
5755;BME280;2902;42.130;24.732;2023-01-28T08:54:17;99249.72;;;10.17;57.04
5755;BME280;2902;42.130;24.732;2023-01-28T08:56:45;99243.97;;;9.73;57.29
5755;BME280;2902;42.130;24.732;2023-01-28T08:59:13;99249.59;;;10.04;57.08
5755;BME280;2902;42.130;24.732;2023-01-28T09:01:39;99260.75;;;10.27;56.32
5755;BME280;2902;42.130;24.732;2023-01-28T09:04:06;99248.09;;;10.29;55.74
5755;BME280;2902;42.130;24.732;2023-01-28T09:06:33;99258.34;;;10.45;54.83
5755;BME280;2902;42.130;24.732;2023-01-28T09:09:00;99242.00;;;10.35;54.92
5755;BME280;2902;42.130;24.732;2023-01-28T09:11:27;99260.38;;;10.43;54.69
5755;BME280;2902;42.130;24.732;2023-01-28T09:13:57;99257.41;;;10.05;53.70
5755;BME280;2902;42.130;24.732;2023-01-28T09:16:24;99263.53;;;9.38;55.85
5755;BME280;2902;42.130;24.732;2023-01-28T09:18:51;99258.72;;;9.48;56.67
5755;BME280;2902;42.130;24.732;2023-01-28T09:21:18;99238.72;;;9.18;57.24
5755;BME280;2902;42.130;24.732;2023-01-28T09:23:45;99242.63;;;9.22;57.46
5755;BME280;2902;42.130;24.732;2023-01-28T09:26:12;99235.88;;;8.92;58.27
5755;BME280;2902;42.130;24.732;2023-01-28T09:28:39;99240.72;;;8.82;58.61
5755;BME280;2902;42.130;24.732;2023-01-28T09:31:08;99237.78;;;8.77;59.57
5755;BME280;2902;42.130;24.732;2023-01-28T09:33:36;99216.50;;;8.64;60.26
5755;BME280;2902;42.130;24.732;2023-01-28T09:36:06;99239.03;;;8.81;58.94
5755;BME280;2902;42.130;24.732;2023-01-28T09:38:33;99241.44;;;8.76;58.42
5755;BME280;2902;42.130;24.732;2023-01-28T09:41:01;99242.72;;;8.80;58.95
5755;BME280;2902;42.130;24.732;2023-01-28T09:43:47;99243.56;;;8.59;59.06
5755;BME280;2902;42.130;24.732;2023-01-28T09:46:18;99238.44;;;8.58;60.03
5755;BME280;2902;42.130;24.732;2023-01-28T09:48:47;99239.13;;;8.66;60.08
5755;BME280;2902;42.130;24.732;2023-01-28T09:51:32;99241.13;;;8.85;59.26
5755;BME280;2902;42.130;24.732;2023-01-28T09:54:02;99237.63;;;9.06;58.62
5755;BME280;2902;42.130;24.732;2023-01-28T09:56:33;99238.44;;;9.34;59.27
5755;BME280;2902;42.130;24.732;2023-01-28T09:59:13;99249.88;;;9.07;57.52
5755;BME280;2902;42.130;24.732;2023-01-28T10:01:46;99231.69;;;9.04;58.55
5755;BME280;2902;42.130;24.732;2023-01-28T10:04:24;99238.50;;;9.13;58.88
5755;BME280;2902;42.130;24.732;2023-01-28T10:07:00;99243.69;;;9.27;58.46
5755;BME280;2902;42.130;24.732;2023-01-28T10:09:36;99240.69;;;9.37;58.99
5755;BME280;2902;42.130;24.732;2023-01-28T10:18:28;99233.41;;;8.42;60.95
5755;BME280;2902;42.130;24.732;2023-01-28T10:21:01;99230.22;;;8.32;60.73
5755;BME280;2902;42.130;24.732;2023-01-28T10:23:37;99229.00;;;8.70;60.62
5755;BME280;2902;42.130;24.732;2023-01-28T10:26:22;99232.50;;;8.56;59.92
5755;BME280;2902;42.130;24.732;2023-01-28T10:28:53;99233.63;;;8.68;60.38
5755;BME280;2902;42.130;24.732;2023-01-28T10:31:21;99228.72;;;8.65;59.96
5755;BME280;2902;42.130;24.732;2023-01-28T10:33:49;99237.19;;;8.54;59.95
5755;BME280;2902;42.130;24.732;2023-01-28T10:36:16;99226.06;;;8.44;61.69
5755;BME280;2902;42.130;24.732;2023-01-28T10:38:44;99227.47;;;8.40;61.12
5755;BME280;2902;42.130;24.732;2023-01-28T10:41:16;99235.22;;;8.41;62.02
5755;BME280;2902;42.130;24.732;2023-01-28T10:43:46;99235.28;;;8.27;62.23
5755;BME280;2902;42.130;24.732;2023-01-28T10:46:16;99226.72;;;8.25;61.70
5755;BME280;2902;42.130;24.732;2023-01-28T10:48:47;99234.66;;;8.10;64.03
5755;BME280;2902;42.130;24.732;2023-01-28T10:51:29;99228.91;;;8.07;64.30
5755;BME280;2902;42.130;24.732;2023-01-28T10:53:56;99220.66;;;8.31;63.30
5755;BME280;2902;42.130;24.732;2023-01-28T10:56:24;99227.78;;;8.16;63.31
5755;BME280;2902;42.130;24.732;2023-01-28T10:58:57;99221.72;;;8.01;64.29
5755;BME280;2902;42.130;24.732;2023-01-28T11:01:25;99224.13;;;7.96;64.55
5755;BME280;2902;42.130;24.732;2023-01-28T11:04:03;99204.72;;;8.10;64.40
5755;BME280;2902;42.130;24.732;2023-01-28T11:06:31;99229.78;;;8.28;63.65
5755;BME280;2902;42.130;24.732;2023-01-28T11:08:58;99222.50;;;8.16;64.34
5755;BME280;2902;42.130;24.732;2023-01-28T11:11:26;99228.84;;;8.36;64.04
5755;BME280;2902;42.130;24.732;2023-01-28T11:13:54;99217.06;;;8.03;65.07
5755;BME280;2902;42.130;24.732;2023-01-28T11:16:23;99222.13;;;7.83;65.19
5755;BME280;2902;42.130;24.732;2023-01-28T11:18:52;99227.28;;;8.06;65.76
5755;BME280;2902;42.130;24.732;2023-01-28T11:21:21;99229.50;;;7.88;65.44
5755;BME280;2902;42.130;24.732;2023-01-28T11:23:52;99221.41;;;7.89;65.11
5755;BME280;2902;42.130;24.732;2023-01-28T11:26:22;99215.06;;;8.05;64.95
5755;BME280;2902;42.130;24.732;2023-01-28T11:28:51;99214.47;;;8.24;64.82
5755;BME280;2902;42.130;24.732;2023-01-28T11:31:19;99213.53;;;8.52;65.22
5755;BME280;2902;42.130;24.732;2023-01-28T11:33:49;99219.91;;;8.79;63.05
5755;BME280;2902;42.130;24.732;2023-01-28T11:36:18;99226.72;;;8.67;62.56
5755;BME280;2902;42.130;24.732;2023-01-28T11:38:52;99229.44;;;8.52;63.25
5755;BME280;2902;42.130;24.732;2023-01-28T11:41:25;99219.69;;;8.38;64.12
5755;BME280;2902;42.130;24.732;2023-01-28T11:43:52;99226.38;;;8.34;63.82
5755;BME280;2902;42.130;24.732;2023-01-28T11:46:45;99221.31;;;8.54;64.34
5755;BME280;2902;42.130;24.732;2023-01-28T11:49:20;99227.34;;;8.48;63.76
5755;BME280;2902;42.130;24.732;2023-01-28T11:51:55;99224.06;;;8.67;63.31
5755;BME280;2902;42.130;24.732;2023-01-28T11:54:38;99225.81;;;8.60;63.36
5755;BME280;2902;42.130;24.732;2023-01-28T11:57:21;99225.56;;;8.76;63.18
5755;BME280;2902;42.130;24.732;2023-01-28T12:06:13;99235.66;;;8.87;63.26
5755;BME280;2902;42.130;24.732;2023-01-28T12:08:53;99233.47;;;8.97;62.97
5755;BME280;2902;42.130;24.732;2023-01-28T12:11:32;99237.38;;;9.01;62.51
5755;BME280;2902;42.130;24.732;2023-01-28T12:14:25;99241.38;;;8.90;63.86
5755;BME280;2902;42.130;24.732;2023-01-28T12:17:03;99248.88;;;8.87;63.04
5755;BME280;2902;42.130;24.732;2023-01-28T12:19:45;99245.94;;;8.75;63.63
5755;BME280;2902;42.130;24.732;2023-01-28T12:22:27;99247.53;;;8.34;63.38
5755;BME280;2902;42.130;24.732;2023-01-28T12:25:09;99242.50;;;8.18;64.53
5755;BME280;2902;42.130;24.732;2023-01-28T12:27:50;99233.28;;;8.29;65.68
5755;BME280;2902;42.130;24.732;2023-01-28T12:30:32;99242.16;;;7.92;66.26
5755;BME280;2902;42.130;24.732;2023-01-28T12:33:14;99249.66;;;7.89;66.31
5755;BME280;2902;42.130;24.732;2023-01-28T12:35:57;99245.75;;;7.56;67.76
5755;BME280;2902;42.130;24.732;2023-01-28T12:38:39;99245.59;;;7.28;68.84
5755;BME280;2902;42.130;24.732;2023-01-28T12:41:11;99246.13;;;7.24;69.19
5755;BME280;2902;42.130;24.732;2023-01-28T12:43:48;99230.63;;;7.21;69.49
5755;BME280;2902;42.130;24.732;2023-01-28T12:46:28;99254.97;;;7.31;69.34
5755;BME280;2902;42.130;24.732;2023-01-28T12:49:02;99248.41;;;7.41;68.45
5755;BME280;2902;42.130;24.732;2023-01-28T12:51:34;99254.97;;;7.31;69.24
5755;BME280;2902;42.130;24.732;2023-01-28T12:54:10;99256.94;;;7.29;69.34
5755;BME280;2902;42.130;24.732;2023-01-28T12:56:41;99262.31;;;7.21;69.94
5755;BME280;2902;42.130;24.732;2023-01-28T12:59:13;99268.44;;;7.21;69.90
5755;BME280;2902;42.130;24.732;2023-01-28T13:01:45;99263.50;;;7.33;69.26
5755;BME280;2902;42.130;24.732;2023-01-28T13:04:28;99271.34;;;7.41;69.48
5755;BME280;2902;42.130;24.732;2023-01-28T13:07:00;99274.00;;;7.41;69.70
5755;BME280;2902;42.130;24.732;2023-01-28T13:09:29;99272.00;;;7.43;69.92
5755;BME280;2902;42.130;24.732;2023-01-28T13:11:57;99270.56;;;7.55;69.90
5755;BME280;2902;42.130;24.732;2023-01-28T13:14:28;99279.13;;;7.57;68.22
5755;BME280;2902;42.130;24.732;2023-01-28T13:17:07;99276.44;;;7.28;69.56
5755;BME280;2902;42.130;24.732;2023-01-28T13:19:36;99286.00;;;7.29;70.08
5755;BME280;2902;42.130;24.732;2023-01-28T13:22:10;99277.06;;;7.15;70.44
5755;BME280;2902;42.130;24.732;2023-01-28T13:24:37;99280.97;;;7.19;70.35
5755;BME280;2902;42.130;24.732;2023-01-28T13:27:11;99290.47;;;7.14;70.27
5755;BME280;2902;42.130;24.732;2023-01-28T13:29:47;99275.03;;;7.03;70.32
5755;BME280;2902;42.130;24.732;2023-01-28T13:32:30;99283.75;;;7.40;79.40
5755;BME280;2902;42.130;24.732;2023-01-28T13:35:00;99297.16;;;7.39;71.36
5755;BME280;2902;42.130;24.732;2023-01-28T13:37:32;99301.84;;;7.29;71.62
5755;BME280;2902;42.130;24.732;2023-01-28T13:40:05;99303.94;;;7.19;70.83
5755;BME280;2902;42.130;24.732;2023-01-28T13:42:34;99246.09;;;6.72;71.75
5755;BME280;2902;42.130;24.732;2023-01-28T13:45:20;99305.09;;;7.02;72.41
5755;BME280;2902;42.130;24.732;2023-01-28T13:47:50;99308.59;;;6.94;73.34
5755;BME280;2902;42.130;24.732;2023-01-28T13:50:20;99314.13;;;6.85;74.39
5755;BME280;2902;42.130;24.732;2023-01-28T13:52:52;99309.38;;;6.58;75.30
5755;BME280;2902;42.130;24.732;2023-01-28T13:55:24;99311.81;;;6.37;76.56
5755;BME280;2902;42.130;24.732;2023-01-28T14:04:17;99298.53;;;5.92;80.10